Terminal Aerodrome Forecast
Issued by NWS

Home | Current Version | Previous Version | Graphics & Text | Print | Product List | Glossary On
Versions: 1 2 3 4 5 6 7 8 9 10 11 12 13 14 15
000
FTUS43 KMPX 222300
TAFAXN
TAF
KAXN 222333Z 2300/2324 14015KT 1/2SM FG VV002
     FM230700 21006KT 3SM BR OVC005
     FM231200 25008KT 6SM BR FEW006 OVC060 PROB30 2312/2316 -RA=

USA.gov is the U.S. government's official web portal to all federal, state and local government web resources and services.